This demonstration page uses our WeatherBlox Daily Observations layout. Learn more.

39.92423, -83.80882

Hourly Observations for September 27, 2019

Temp ( °F °C ) Dew Point ( °F °C ) Humidity (%) Winds ( mph kmh ) Pressure ( in mb ) Visibility ( mi km ) Precip ( " mm )
12:56 am 00:56 Clear 47 8.3 45 7.2 93 93 E 3 6 30 1016 10 16.09344 0 0
1:56 am 01:56 Clear 49 9.4 45 7.2 86 86 SE 3 6 30 1016 10 16.09344 0 0
2:56 am 02:56 Clear 47 8.3 44 6.7 90 90 SE 5 7 30 1016 10 16.09344 0 0
3:56 am 03:56 Clear 49 9.4 44 6.7 83 83 SE 6 9 30 1016 10 16.09344 0 0
4:56 am 04:56 Clear 48 8.9 44 6.7 86 86 ESE 5 7 30 1016 10 16.09344 0 0
5:56 am 05:56 Clear 52 11.1 44 6.7 75 75 SE 6 9 30 1016 10 16.09344 0 0
6:56 am 06:56 Clear 52 11.1 44 6.7 75 75 ESE 7 11 30 1016 10 16.09344 0 0
7:56 am 07:56 Sunny 54 12.2 46 7.8 75 75 SE 8 13 30 1016 10 16.09344 0 0
8:56 am 08:56 Sunny 62 16.7 47 8.3 58 58 SE 13 20 30 1016 10 16.09344 0 0
9:56 am 09:56 Sunny 67 19.4 48 8.9 51 51 SSE 12 19 30 1016 10 16.09344 0 0
10:56 am 10:56 Sunny 74 23.3 48 8.9 40 40 S 10 17 29.97 1015 10 16.09344 0 0
11:56 am 11:56 Sunny 78 25.6 50 10 37 37 S 12 19 29.97 1015 10 16.09344 0 0
12:56 pm 12:56 Sunny 82 27.8 53 11.7 37 37 SSW 10 17 29.94 1014 10 16.09344 0 0
1:56 pm 13:56 Sunny 84 28.9 52 11.1 33 33 S 12 19 29.91 1013 10 16.09344 0 0
2:56 pm 14:56 Sunny 86 30 51 10.6 30 30 S 13 20 29.88 1012 10 16.09344 0 0
3:56 pm 15:56 Sunny 87 30.6 53 11.7 31 31 SSW 9 15 29.85 1011 10 16.09344 0 0
4:56 pm 16:56 Sunny 86 30 55 12.8 35 35 SSW 9 15 29.88 1012 10 16.09344 0 0
5:56 pm 17:56 Sunny 86 30 57 13.9 37 37 SSW 8 13 29.88 1012 10 16.09344 0 0
6:56 pm 18:56 Mostly Sunny 84 28.9 59 15 43 43 Calm 29.88 1012 10 16.09344 0 0
7:56 pm 19:56 Cloudy 79 26.1 61 16.1 54 54 Calm 29.88 1012 10 16.09344 0 0
8:56 pm 20:56 Mostly Cloudy with Light Rain 70 21.1 65 18.3 84 84 NE 13 20 29.91 1013 10 16.09344 0.001 0.001
9:56 pm 21:56 Clear 68 20 64 17.8 87 87 NNE 5 7 29.88 1012 10 16.09344 0.001 0.001
10:56 pm 22:56 Mostly Cloudy 67 19.4 63 17.2 87 87 E 8 13 29.88 1012 10 16.09344 0 0
11:56 pm 23:56 Clear 66 18.9 62 16.7 87 87 E 7 11 29.88 1012 10 16.09344 0 0

Powered by AerisWeather